sensor_id;sensor_type;location;lat;lon;timestamp;P1;durP1;ratioP1;P2;durP2;ratioP2
25972;SDS011;13765;51.166;4.466;2023-02-28T00:01:24;13.40;;;5.32;;
25972;SDS011;13765;51.166;4.466;2023-02-28T00:03:50;12.80;;;5.15;;
25972;SDS011;13765;51.166;4.466;2023-02-28T00:06:16;11.88;;;5.03;;
25972;SDS011;13765;51.166;4.466;2023-02-28T00:08:42;14.48;;;5.30;;
25972;SDS011;13765;51.166;4.466;2023-02-28T00:11:13;9.77;;;4.68;;
25972;SDS011;13765;51.166;4.466;2023-02-28T00:13:40;9.27;;;4.38;;
25972;SDS011;13765;51.166;4.466;2023-02-28T00:16:12;12.32;;;5.07;;
25972;SDS011;13765;51.166;4.466;2023-02-28T00:18:45;11.15;;;4.47;;
25972;SDS011;13765;51.166;4.466;2023-02-28T00:21:15;10.32;;;4.65;;
25972;SDS011;13765;51.166;4.466;2023-02-28T00:23:41;10.82;;;5.07;;
25972;SDS011;13765;51.166;4.466;2023-02-28T00:26:07;11.77;;;5.45;;
25972;SDS011;13765;51.166;4.466;2023-02-28T00:28:40;13.48;;;5.15;;
25972;SDS011;13765;51.166;4.466;2023-02-28T00:31:08;11.02;;;4.85;;
25972;SDS011;13765;51.166;4.466;2023-02-28T00:33:36;13.00;;;5.30;;
25972;SDS011;13765;51.166;4.466;2023-02-28T00:36:04;11.13;;;4.82;;
25972;SDS011;13765;51.166;4.466;2023-02-28T00:38:34;13.63;;;4.87;;
25972;SDS011;13765;51.166;4.466;2023-02-28T00:41:07;10.65;;;5.00;;
25972;SDS011;13765;51.166;4.466;2023-02-28T00:46:04;13.73;;;4.43;;
25972;SDS011;13765;51.166;4.466;2023-02-28T00:48:30;10.40;;;4.60;;
25972;SDS011;13765;51.166;4.466;2023-02-28T00:50:58;7.47;;;3.25;;
25972;SDS011;13765;51.166;4.466;2023-02-28T00:53:24;12.60;;;5.22;;
25972;SDS011;13765;51.166;4.466;2023-02-28T00:55:52;9.35;;;4.05;;
25972;SDS011;13765;51.166;4.466;2023-02-28T00:58:18;8.75;;;4.82;;
25972;SDS011;13765;51.166;4.466;2023-02-28T01:00:44;12.75;;;4.35;;
25972;SDS011;13765;51.166;4.466;2023-02-28T01:03:13;14.20;;;5.53;;
25972;SDS011;13765;51.166;4.466;2023-02-28T01:05:45;10.43;;;4.60;;
25972;SDS011;13765;51.166;4.466;2023-02-28T01:08:11;13.32;;;5.88;;
25972;SDS011;13765;51.166;4.466;2023-02-28T01:10:38;15.52;;;5.68;;
25972;SDS011;13765;51.166;4.466;2023-02-28T01:13:05;10.43;;;4.90;;
25972;SDS011;13765;51.166;4.466;2023-02-28T01:15:30;11.88;;;4.78;;
25972;SDS011;13765;51.166;4.466;2023-02-28T01:17:59;11.10;;;4.60;;
25972;SDS011;13765;51.166;4.466;2023-02-28T01:20:25;13.23;;;5.57;;
25972;SDS011;13765;51.166;4.466;2023-02-28T01:22:59;13.65;;;5.47;;
25972;SDS011;13765;51.166;4.466;2023-02-28T01:25:25;10.63;;;4.65;;
25972;SDS011;13765;51.166;4.466;2023-02-28T01:27:53;9.07;;;4.70;;
25972;SDS011;13765;51.166;4.466;2023-02-28T01:30:24;12.40;;;5.13;;
25972;SDS011;13765;51.166;4.466;2023-02-28T01:32:51;12.00;;;5.40;;
25972;SDS011;13765;51.166;4.466;2023-02-28T01:35:18;11.60;;;5.38;;
25972;SDS011;13765;51.166;4.466;2023-02-28T01:37:44;12.57;;;6.13;;
25972;SDS011;13765;51.166;4.466;2023-02-28T01:40:13;15.25;;;5.13;;
25972;SDS011;13765;51.166;4.466;2023-02-28T01:42:39;12.23;;;5.20;;
25972;SDS011;13765;51.166;4.466;2023-02-28T01:45:18;12.18;;;4.68;;
25972;SDS011;13765;51.166;4.466;2023-02-28T01:47:52;7.88;;;4.03;;
25972;SDS011;13765;51.166;4.466;2023-02-28T01:50:31;10.25;;;4.72;;
25972;SDS011;13765;51.166;4.466;2023-02-28T01:53:07;10.82;;;5.65;;
25972;SDS011;13765;51.166;4.466;2023-02-28T01:55:37;12.95;;;4.93;;
25972;SDS011;13765;51.166;4.466;2023-02-28T01:58:04;10.13;;;5.03;;
25972;SDS011;13765;51.166;4.466;2023-02-28T02:00:34;13.13;;;4.72;;
25972;SDS011;13765;51.166;4.466;2023-02-28T02:03:08;13.07;;;4.28;;
25972;SDS011;13765;51.166;4.466;2023-02-28T02:05:38;10.57;;;4.50;;
25972;SDS011;13765;51.166;4.466;2023-02-28T02:08:13;10.30;;;4.35;;
25972;SDS011;13765;51.166;4.466;2023-02-28T02:10:52;10.30;;;4.93;;
25972;SDS011;13765;51.166;4.466;2023-02-28T02:21:43;11.32;;;5.18;;
25972;SDS011;13765;51.166;4.466;2023-02-28T02:24:33;10.75;;;4.43;;
25972;SDS011;13765;51.166;4.466;2023-02-28T02:32:44;9.30;;;4.10;;
25972;SDS011;13765;51.166;4.466;2023-02-28T02:46:12;13.70;;;5.57;;
25972;SDS011;13765;51.166;4.466;2023-02-28T02:48:44;19.80;;;5.68;;
25972;SDS011;13765;51.166;4.466;2023-02-28T02:51:13;6.20;;;3.83;;
25972;SDS011;13765;51.166;4.466;2023-02-28T02:53:46;13.23;;;5.47;;
25972;SDS011;13765;51.166;4.466;2023-02-28T02:56:33;12.57;;;4.53;;
25972;SDS011;13765;51.166;4.466;2023-02-28T02:59:06;12.25;;;4.90;;
25972;SDS011;13765;51.166;4.466;2023-02-28T03:01:34;14.52;;;4.60;;
25972;SDS011;13765;51.166;4.466;2023-02-28T03:04:03;12.27;;;5.65;;
25972;SDS011;13765;51.166;4.466;2023-02-28T03:06:32;12.02;;;5.03;;
25972;SDS011;13765;51.166;4.466;2023-02-28T03:08:59;18.17;;;5.63;;
25972;SDS011;13765;51.166;4.466;2023-02-28T03:11:27;10.82;;;4.68;;
25972;SDS011;13765;51.166;4.466;2023-02-28T03:16:36;10.27;;;4.38;;
25972;SDS011;13765;51.166;4.466;2023-02-28T03:25:24;11.57;;;4.83;;
25972;SDS011;13765;51.166;4.466;2023-02-28T03:28:00;14.00;;;5.20;;
25972;SDS011;13765;51.166;4.466;2023-02-28T03:30:41;12.70;;;5.93;;
25972;SDS011;13765;51.166;4.466;2023-02-28T03:33:20;11.38;;;4.38;;
25972;SDS011;13765;51.166;4.466;2023-02-28T03:36:13;15.18;;;5.05;;
25972;SDS011;13765;51.166;4.466;2023-02-28T03:41:19;13.52;;;5.35;;
25972;SDS011;13765;51.166;4.466;2023-02-28T03:43:49;9.65;;;4.15;;
25972;SDS011;13765;51.166;4.466;2023-02-28T03:46:22;9.20;;;4.60;;
25972;SDS011;13765;51.166;4.466;2023-02-28T03:48:53;10.75;;;4.40;;
25972;SDS011;13765;51.166;4.466;2023-02-28T03:51:28;10.68;;;4.32;;
25972;SDS011;13765;51.166;4.466;2023-02-28T03:53:57;7.63;;;3.78;;
25972;SDS011;13765;51.166;4.466;2023-02-28T03:56:31;14.80;;;4.88;;
25972;SDS011;13765;51.166;4.466;2023-02-28T03:59:06;16.90;;;5.43;;
25972;SDS011;13765;51.166;4.466;2023-02-28T04:01:49;15.75;;;4.80;;
25972;SDS011;13765;51.166;4.466;2023-02-28T04:04:19;12.68;;;5.72;;
25972;SDS011;13765;51.166;4.466;2023-02-28T04:06:44;10.75;;;4.57;;
25972;SDS011;13765;51.166;4.466;2023-02-28T04:09:11;10.52;;;4.55;;
25972;SDS011;13765;51.166;4.466;2023-02-28T04:11:50;12.50;;;5.50;;
25972;SDS011;13765;51.166;4.466;2023-02-28T04:14:20;12.05;;;5.03;;
25972;SDS011;13765;51.166;4.466;2023-02-28T04:16:46;15.13;;;5.32;;
25972;SDS011;13765;51.166;4.466;2023-02-28T04:19:14;8.02;;;4.32;;
25972;SDS011;13765;51.166;4.466;2023-02-28T04:24:12;7.90;;;3.58;;
25972;SDS011;13765;51.166;4.466;2023-02-28T04:26:39;11.48;;;5.57;;
25972;SDS011;13765;51.166;4.466;2023-02-28T04:29:08;9.65;;;4.93;;
25972;SDS011;13765;51.166;4.466;2023-02-28T04:31:39;7.85;;;3.40;;
25972;SDS011;13765;51.166;4.466;2023-02-28T04:34:05;11.88;;;4.95;;
25972;SDS011;13765;51.166;4.466;2023-02-28T04:36:33;12.82;;;5.82;;
25972;SDS011;13765;51.166;4.466;2023-02-28T04:38:59;9.43;;;4.65;;
25972;SDS011;13765;51.166;4.466;2023-02-28T04:41:29;16.33;;;5.68;;
25972;SDS011;13765;51.166;4.466;2023-02-28T04:43:55;10.38;;;4.55;;
25972;SDS011;13765;51.166;4.466;2023-02-28T04:46:21;12.10;;;6.07;;
25972;SDS011;13765;51.166;4.466;2023-02-28T04:48:47;15.18;;;5.80;;
25972;SDS011;13765;51.166;4.466;2023-02-28T04:51:13;10.20;;;4.53;;
25972;SDS011;13765;51.166;4.466;2023-02-28T04:53:40;14.85;;;5.35;;
25972;SDS011;13765;51.166;4.466;2023-02-28T04:56:07;16.85;;;6.25;;
25972;SDS011;13765;51.166;4.466;2023-02-28T04:58:38;17.10;;;6.60;;
25972;SDS011;13765;51.166;4.466;2023-02-28T05:01:16;11.15;;;5.47;;
25972;SDS011;13765;51.166;4.466;2023-02-28T05:03:43;11.18;;;4.93;;
25972;SDS011;13765;51.166;4.466;2023-02-28T05:06:10;13.25;;;4.88;;
25972;SDS011;13765;51.166;4.466;2023-02-28T05:08:37;16.10;;;4.88;;
25972;SDS011;13765;51.166;4.466;2023-02-28T05:11:05;15.98;;;5.60;;
25972;SDS011;13765;51.166;4.466;2023-02-28T05:13:37;8.05;;;4.28;;
25972;SDS011;13765;51.166;4.466;2023-02-28T05:16:02;14.13;;;5.65;;
25972;SDS011;13765;51.166;4.466;2023-02-28T05:18:31;11.63;;;4.38;;
25972;SDS011;13765;51.166;4.466;2023-02-28T05:20:56;10.80;;;4.30;;
25972;SDS011;13765;51.166;4.466;2023-02-28T05:23:25;18.52;;;4.82;;
25972;SDS011;13765;51.166;4.466;2023-02-28T05:25:50;12.00;;;5.30;;
25972;SDS011;13765;51.166;4.466;2023-02-28T05:28:17;12.65;;;4.95;;
25972;SDS011;13765;51.166;4.466;2023-02-28T05:30:42;13.55;;;5.50;;
25972;SDS011;13765;51.166;4.466;2023-02-28T05:33:10;12.25;;;4.85;;
25972;SDS011;13765;51.166;4.466;2023-02-28T05:35:40;10.02;;;4.50;;
25972;SDS011;13765;51.166;4.466;2023-02-28T05:38:09;13.18;;;5.40;;
25972;SDS011;13765;51.166;4.466;2023-02-28T05:40:38;9.50;;;4.72;;
25972;SDS011;13765;51.166;4.466;2023-02-28T05:43:05;12.43;;;4.53;;
25972;SDS011;13765;51.166;4.466;2023-02-28T05:45:37;8.85;;;4.03;;
25972;SDS011;13765;51.166;4.466;2023-02-28T05:48:02;13.48;;;4.88;;
25972;SDS011;13765;51.166;4.466;2023-02-28T05:50:32;11.68;;;4.63;;
25972;SDS011;13765;51.166;4.466;2023-02-28T05:53:00;12.13;;;4.80;;
25972;SDS011;13765;51.166;4.466;2023-02-28T05:55:26;19.95;;;5.70;;
25972;SDS011;13765;51.166;4.466;2023-02-28T05:57:54;12.05;;;5.13;;
25972;SDS011;13765;51.166;4.466;2023-02-28T06:00:23;11.88;;;4.38;;
25972;SDS011;13765;51.166;4.466;2023-02-28T06:02:49;12.02;;;4.80;;
25972;SDS011;13765;51.166;4.466;2023-02-28T06:05:15;11.18;;;4.75;;
25972;SDS011;13765;51.166;4.466;2023-02-28T06:07:42;8.40;;;4.60;;
25972;SDS011;13765;51.166;4.466;2023-02-28T06:10:12;11.48;;;4.20;;
25972;SDS011;13765;51.166;4.466;2023-02-28T06:12:41;11.88;;;4.47;;
25972;SDS011;13765;51.166;4.466;2023-02-28T06:15:07;9.10;;;4.65;;
25972;SDS011;13765;51.166;4.466;2023-02-28T06:17:36;14.68;;;6.13;;
25972;SDS011;13765;51.166;4.466;2023-02-28T06:20:05;12.60;;;4.85;;
25972;SDS011;13765;51.166;4.466;2023-02-28T06:22:31;10.45;;;4.60;;
25972;SDS011;13765;51.166;4.466;2023-02-28T06:24:56;16.30;;;5.15;;
25972;SDS011;13765;51.166;4.466;2023-02-28T06:27:22;11.57;;;5.35;;
25972;SDS011;13765;51.166;4.466;2023-02-28T06:29:48;8.52;;;4.13;;
25972;SDS011;13765;51.166;4.466;2023-02-28T06:32:14;14.48;;;4.80;;
25972;SDS011;13765;51.166;4.466;2023-02-28T06:34:42;10.18;;;5.07;;
25972;SDS011;13765;51.166;4.466;2023-02-28T06:37:10;15.90;;;5.00;;
25972;SDS011;13765;51.166;4.466;2023-02-28T06:39:38;13.75;;;5.18;;
25972;SDS011;13765;51.166;4.466;2023-02-28T06:42:04;9.35;;;4.40;;
25972;SDS011;13765;51.166;4.466;2023-02-28T06:44:32;10.93;;;4.35;;
25972;SDS011;13765;51.166;4.466;2023-02-28T06:47:02;10.60;;;4.10;;
25972;SDS011;13765;51.166;4.466;2023-02-28T06:49:30;15.75;;;4.38;;
25972;SDS011;13765;51.166;4.466;2023-02-28T06:51:59;10.13;;;4.40;;
25972;SDS011;13765;51.166;4.466;2023-02-28T06:54:27;16.13;;;4.38;;
25972;SDS011;13765;51.166;4.466;2023-02-28T06:56:56;13.00;;;5.93;;
25972;SDS011;13765;51.166;4.466;2023-02-28T06:59:23;7.95;;;4.07;;
25972;SDS011;13765;51.166;4.466;2023-02-28T07:01:51;9.82;;;4.32;;
25972;SDS011;13765;51.166;4.466;2023-02-28T07:04:16;7.35;;;3.70;;
25972;SDS011;13765;51.166;4.466;2023-02-28T07:06:45;9.85;;;4.40;;
25972;SDS011;13765;51.166;4.466;2023-02-28T07:09:20;12.07;;;4.35;;
25972;SDS011;13765;51.166;4.466;2023-02-28T07:11:51;12.05;;;4.43;;
25972;SDS011;13765;51.166;4.466;2023-02-28T07:14:16;14.68;;;5.07;;
25972;SDS011;13765;51.166;4.466;2023-02-28T07:16:44;11.93;;;5.07;;
25972;SDS011;13765;51.166;4.466;2023-02-28T07:19:10;12.43;;;4.28;;
25972;SDS011;13765;51.166;4.466;2023-02-28T07:21:38;9.45;;;4.13;;
25972;SDS011;13765;51.166;4.466;2023-02-28T07:24:04;13.73;;;5.18;;
25972;SDS011;13765;51.166;4.466;2023-02-28T07:26:33;13.98;;;6.10;;
25972;SDS011;13765;51.166;4.466;2023-02-28T07:29:03;11.52;;;4.60;;
25972;SDS011;13765;51.166;4.466;2023-02-28T07:31:29;10.27;;;5.05;;
25972;SDS011;13765;51.166;4.466;2023-02-28T07:33:54;12.38;;;4.22;;
25972;SDS011;13765;51.166;4.466;2023-02-28T07:36:24;13.13;;;4.82;;
25972;SDS011;13765;51.166;4.466;2023-02-28T07:38:52;9.30;;;4.22;;
25972;SDS011;13765;51.166;4.466;2023-02-28T07:41:21;7.95;;;4.00;;
25972;SDS011;13765;51.166;4.466;2023-02-28T07:43:53;8.73;;;4.25;;
25972;SDS011;13765;51.166;4.466;2023-02-28T07:46:25;16.88;;;4.70;;
25972;SDS011;13765;51.166;4.466;2023-02-28T07:48:52;16.45;;;6.00;;
25972;SDS011;13765;51.166;4.466;2023-02-28T07:51:19;9.95;;;4.55;;
25972;SDS011;13765;51.166;4.466;2023-02-28T07:53:45;9.55;;;3.70;;
25972;SDS011;13765;51.166;4.466;2023-02-28T07:56:13;11.70;;;4.32;;
25972;SDS011;13765;51.166;4.466;2023-02-28T07:58:39;14.93;;;4.32;;
25972;SDS011;13765;51.166;4.466;2023-02-28T08:01:05;11.75;;;5.28;;
25972;SDS011;13765;51.166;4.466;2023-02-28T08:03:33;13.70;;;5.32;;
25972;SDS011;13765;51.166;4.466;2023-02-28T08:06:02;6.82;;;3.70;;
25972;SDS011;13765;51.166;4.466;2023-02-28T08:08:29;8.38;;;3.55;;
25972;SDS011;13765;51.166;4.466;2023-02-28T08:11:00;11.75;;;4.25;;
25972;SDS011;13765;51.166;4.466;2023-02-28T08:13:27;10.85;;;4.18;;
25972;SDS011;13765;51.166;4.466;2023-02-28T08:15:55;10.07;;;3.92;;
25972;SDS011;13765;51.166;4.466;2023-02-28T08:18:24;10.02;;;3.85;;
25972;SDS011;13765;51.166;4.466;2023-02-28T08:20:52;6.63;;;3.28;;
25972;SDS011;13765;51.166;4.466;2023-02-28T08:23:17;14.50;;;4.43;;
25972;SDS011;13765;51.166;4.466;2023-02-28T08:25:43;9.70;;;3.80;;
25972;SDS011;13765;51.166;4.466;2023-02-28T08:28:11;9.32;;;3.80;;
25972;SDS011;13765;51.166;4.466;2023-02-28T08:30:39;14.07;;;4.13;;
25972;SDS011;13765;51.166;4.466;2023-02-28T08:33:05;8.18;;;4.07;;
25972;SDS011;13765;51.166;4.466;2023-02-28T08:35:35;9.48;;;3.53;;
25972;SDS011;13765;51.166;4.466;2023-02-28T08:38:01;11.45;;;4.07;;
25972;SDS011;13765;51.166;4.466;2023-02-28T08:40:27;8.18;;;3.70;;
25972;SDS011;13765;51.166;4.466;2023-02-28T08:42:52;10.75;;;4.07;;
25972;SDS011;13765;51.166;4.466;2023-02-28T08:45:18;11.20;;;4.10;;
25972;SDS011;13765;51.166;4.466;2023-02-28T08:47:46;10.93;;;4.07;;
25972;SDS011;13765;51.166;4.466;2023-02-28T08:50:12;8.98;;;2.92;;
25972;SDS011;13765;51.166;4.466;2023-02-28T08:52:42;8.35;;;4.15;;
25972;SDS011;13765;51.166;4.466;2023-02-28T08:55:10;10.15;;;4.32;;
25972;SDS011;13765;51.166;4.466;2023-02-28T08:57:36;7.70;;;3.15;;
25972;SDS011;13765;51.166;4.466;2023-02-28T09:00:02;5.05;;;2.72;;
25972;SDS011;13765;51.166;4.466;2023-02-28T09:02:29;10.18;;;4.07;;
25972;SDS011;13765;51.166;4.466;2023-02-28T09:04:56;12.48;;;4.38;;
25972;SDS011;13765;51.166;4.466;2023-02-28T09:07:22;6.28;;;3.15;;
25972;SDS011;13765;51.166;4.466;2023-02-28T09:09:51;8.73;;;3.50;;
25972;SDS011;13765;51.166;4.466;2023-02-28T09:12:28;7.53;;;3.72;;
25972;SDS011;13765;51.166;4.466;2023-02-28T09:15:02;10.02;;;3.40;;
25972;SDS011;13765;51.166;4.466;2023-02-28T09:17:28;6.93;;;3.65;;
25972;SDS011;13765;51.166;4.466;2023-02-28T09:19:54;6.95;;;2.70;;
25972;SDS011;13765;51.166;4.466;2023-02-28T09:22:22;10.00;;;3.47;;
25972;SDS011;13765;51.166;4.466;2023-02-28T09:24:50;4.90;;;2.20;;
25972;SDS011;13765;51.166;4.466;2023-02-28T09:27:16;8.25;;;3.35;;
25972;SDS011;13765;51.166;4.466;2023-02-28T09:29:42;6.32;;;3.33;;
25972;SDS011;13765;51.166;4.466;2023-02-28T09:32:07;11.93;;;3.28;;
25972;SDS011;13765;51.166;4.466;2023-02-28T09:34:35;13.80;;;4.03;;
25972;SDS011;13765;51.166;4.466;2023-02-28T09:37:02;6.95;;;3.05;;
25972;SDS011;13765;51.166;4.466;2023-02-28T09:39:27;5.22;;;2.33;;
25972;SDS011;13765;51.166;4.466;2023-02-28T09:41:56;4.15;;;2.40;;
25972;SDS011;13765;51.166;4.466;2023-02-28T09:47:05;7.45;;;2.90;;
25972;SDS011;13765;51.166;4.466;2023-02-28T09:49:52;6.82;;;2.85;;
25972;SDS011;13765;51.166;4.466;2023-02-28T09:52:21;3.72;;;2.30;;
25972;SDS011;13765;51.166;4.466;2023-02-28T09:54:54;7.20;;;2.53;;
25972;SDS011;13765;51.166;4.466;2023-02-28T09:57:35;9.07;;;3.53;;
25972;SDS011;13765;51.166;4.466;2023-02-28T10:00:39;9.00;;;3.70;;
25972;SDS011;13765;51.166;4.466;2023-02-28T10:05:41;3.08;;;1.95;;
25972;SDS011;13765;51.166;4.466;2023-02-28T10:09:00;2.55;;;1.83;;
25972;SDS011;13765;51.166;4.466;2023-02-28T10:18:51;9.60;;;2.70;;
25972;SDS011;13765;51.166;4.466;2023-02-28T10:21:41;3.13;;;1.90;;
25972;SDS011;13765;51.166;4.466;2023-02-28T10:26:59;3.33;;;1.83;;
25972;SDS011;13765;51.166;4.466;2023-02-28T10:29:43;2.40;;;1.80;;
25972;SDS011;13765;51.166;4.466;2023-02-28T10:32:14;3.95;;;2.55;;
25972;SDS011;13765;51.166;4.466;2023-02-28T10:34:52;2.17;;;1.87;;
25972;SDS011;13765;51.166;4.466;2023-02-28T10:37:44;3.38;;;2.05;;
25972;SDS011;13765;51.166;4.466;2023-02-28T10:40:33;12.52;;;2.40;;
25972;SDS011;13765;51.166;4.466;2023-02-28T10:43:04;2.15;;;1.40;;
25972;SDS011;13765;51.166;4.466;2023-02-28T10:49:05;4.68;;;2.35;;
25972;SDS011;13765;51.166;4.466;2023-02-28T10:51:38;2.00;;;1.80;;
25972;SDS011;13765;51.166;4.466;2023-02-28T10:54:05;2.78;;;1.83;;
25972;SDS011;13765;51.166;4.466;2023-02-28T10:56:42;4.05;;;1.95;;
25972;SDS011;13765;51.166;4.466;2023-02-28T11:04:12;4.18;;;2.00;;
25972;SDS011;13765;51.166;4.466;2023-02-28T11:07:18;3.53;;;2.17;;
25972;SDS011;13765;51.166;4.466;2023-02-28T11:09:48;5.03;;;1.90;;
25972;SDS011;13765;51.166;4.466;2023-02-28T11:14:54;4.63;;;1.73;;
25972;SDS011;13765;51.166;4.466;2023-02-28T11:17:41;6.63;;;1.58;;
25972;SDS011;13765;51.166;4.466;2023-02-28T11:20:21;2.72;;;1.98;;
25972;SDS011;13765;51.166;4.466;2023-02-28T11:22:49;5.45;;;2.08;;
25972;SDS011;13765;51.166;4.466;2023-02-28T11:25:21;2.85;;;1.98;;
25972;SDS011;13765;51.166;4.466;2023-02-28T11:27:57;5.15;;;2.28;;
25972;SDS011;13765;51.166;4.466;2023-02-28T11:30:39;1.70;;;1.60;;
25972;SDS011;13765;51.166;4.466;2023-02-28T11:35:50;3.85;;;2.00;;
25972;SDS011;13765;51.166;4.466;2023-02-28T11:38:17;4.18;;;2.00;;
25972;SDS011;13765;51.166;4.466;2023-02-28T11:40:51;4.80;;;2.10;;
25972;SDS011;13765;51.166;4.466;2023-02-28T11:46:41;5.35;;;1.75;;
25972;SDS011;13765;51.166;4.466;2023-02-28T11:49:19;3.47;;;1.95;;
25972;SDS011;13765;51.166;4.466;2023-02-28T11:57:50;3.80;;;2.33;;
25972;SDS011;13765;51.166;4.466;2023-02-28T12:19:18;5.15;;;2.35;;
25972;SDS011;13765;51.166;4.466;2023-02-28T12:26:58;3.05;;;1.60;;
25972;SDS011;13765;51.166;4.466;2023-02-28T12:29:43;5.95;;;2.08;;
25972;SDS011;13765;51.166;4.466;2023-02-28T12:37:38;3.08;;;1.45;;
25972;SDS011;13765;51.166;4.466;2023-02-28T12:42:41;4.50;;;2.00;;
25972;SDS011;13765;51.166;4.466;2023-02-28T12:47:42;3.50;;;2.05;;
25972;SDS011;13765;51.166;4.466;2023-02-28T12:50:11;4.35;;;2.30;;
25972;SDS011;13765;51.166;4.466;2023-02-28T12:52:49;4.57;;;1.90;;
25972;SDS011;13765;51.166;4.466;2023-02-28T12:55:20;6.47;;;2.53;;
25972;SDS011;13765;51.166;4.466;2023-02-28T12:58:05;4.68;;;2.10;;
25972;SDS011;13765;51.166;4.466;2023-02-28T13:00:42;4.35;;;2.30;;
25972;SDS011;13765;51.166;4.466;2023-02-28T13:12:00;9.60;;;3.20;;
25972;SDS011;13765;51.166;4.466;2023-02-28T13:19:59;4.20;;;2.53;;
25972;SDS011;13765;51.166;4.466;2023-02-28T13:24:54;7.45;;;2.25;;
25972;SDS011;13765;51.166;4.466;2023-02-28T13:29:53;5.93;;;3.22;;
25972;SDS011;13765;51.166;4.466;2023-02-28T13:39:54;9.77;;;2.83;;
25972;SDS011;13765;51.166;4.466;2023-02-28T13:47:53;5.10;;;2.47;;
25972;SDS011;13765;51.166;4.466;2023-02-28T14:06:53;4.15;;;2.35;;
25972;SDS011;13765;51.166;4.466;2023-02-28T14:09:31;4.68;;;2.60;;
25972;SDS011;13765;51.166;4.466;2023-02-28T14:15:23;4.60;;;2.30;;
25972;SDS011;13765;51.166;4.466;2023-02-28T14:17:54;4.38;;;2.08;;
25972;SDS011;13765;51.166;4.466;2023-02-28T14:20:21;6.18;;;3.38;;
25972;SDS011;13765;51.166;4.466;2023-02-28T14:36:33;5.55;;;2.97;;
25972;SDS011;13765;51.166;4.466;2023-02-28T14:39:11;8.20;;;3.50;;
25972;SDS011;13765;51.166;4.466;2023-02-28T14:41:39;7.05;;;2.85;;
25972;SDS011;13765;51.166;4.466;2023-02-28T14:44:19;4.00;;;2.38;;
25972;SDS011;13765;51.166;4.466;2023-02-28T14:46:51;3.25;;;2.22;;
25972;SDS011;13765;51.166;4.466;2023-02-28T14:49:28;10.32;;;3.38;;
25972;SDS011;13765;51.166;4.466;2023-02-28T14:54:37;4.45;;;2.30;;
25972;SDS011;13765;51.166;4.466;2023-02-28T14:57:03;9.73;;;3.42;;
25972;SDS011;13765;51.166;4.466;2023-02-28T14:59:31;7.68;;;3.13;;
25972;SDS011;13765;51.166;4.466;2023-02-28T15:02:17;8.10;;;2.90;;
25972;SDS011;13765;51.166;4.466;2023-02-28T15:04:43;4.18;;;2.40;;
25972;SDS011;13765;51.166;4.466;2023-02-28T15:07:24;5.80;;;2.38;;
25972;SDS011;13765;51.166;4.466;2023-02-28T15:12:41;9.75;;;3.03;;
25972;SDS011;13765;51.166;4.466;2023-02-28T15:18:51;2.67;;;2.30;;
25972;SDS011;13765;51.166;4.466;2023-02-28T15:21:30;7.85;;;3.35;;
25972;SDS011;13765;51.166;4.466;2023-02-28T15:26:36;9.05;;;3.10;;
25972;SDS011;13765;51.166;4.466;2023-02-28T15:29:14;12.70;;;3.28;;
25972;SDS011;13765;51.166;4.466;2023-02-28T15:31:45;6.57;;;2.90;;
25972;SDS011;13765;51.166;4.466;2023-02-28T15:34:46;5.47;;;3.03;;
25972;SDS011;13765;51.166;4.466;2023-02-28T15:37:28;5.68;;;2.72;;
25972;SDS011;13765;51.166;4.466;2023-02-28T15:40:27;7.75;;;2.85;;
25972;SDS011;13765;51.166;4.466;2023-02-28T15:43:06;5.70;;;3.13;;
25972;SDS011;13765;51.166;4.466;2023-02-28T15:45:45;5.63;;;2.35;;
25972;SDS011;13765;51.166;4.466;2023-02-28T15:48:17;6.63;;;3.35;;
25972;SDS011;13765;51.166;4.466;2023-02-28T15:50:44;10.35;;;3.85;;
25972;SDS011;13765;51.166;4.466;2023-02-28T15:53:16;7.60;;;3.17;;
25972;SDS011;13765;51.166;4.466;2023-02-28T15:55:44;6.70;;;3.53;;
25972;SDS011;13765;51.166;4.466;2023-02-28T15:58:21;6.28;;;3.03;;
25972;SDS011;13765;51.166;4.466;2023-02-28T16:01:00;6.93;;;3.03;;
25972;SDS011;13765;51.166;4.466;2023-02-28T16:03:36;10.98;;;3.90;;
25972;SDS011;13765;51.166;4.466;2023-02-28T16:06:09;6.55;;;2.83;;
25972;SDS011;13765;51.166;4.466;2023-02-28T16:08:52;5.43;;;3.20;;
25972;SDS011;13765;51.166;4.466;2023-02-28T16:11:18;7.75;;;3.38;;
25972;SDS011;13765;51.166;4.466;2023-02-28T16:13:46;7.60;;;2.85;;
25972;SDS011;13765;51.166;4.466;2023-02-28T16:16:15;9.52;;;3.60;;
25972;SDS011;13765;51.166;4.466;2023-02-28T16:18:42;12.18;;;3.80;;
25972;SDS011;13765;51.166;4.466;2023-02-28T16:21:10;10.35;;;3.35;;
25972;SDS011;13765;51.166;4.466;2023-02-28T16:23:36;8.07;;;4.13;;
25972;SDS011;13765;51.166;4.466;2023-02-28T16:26:02;7.32;;;2.95;;
25972;SDS011;13765;51.166;4.466;2023-02-28T16:28:34;4.78;;;2.83;;
25972;SDS011;13765;51.166;4.466;2023-02-28T16:31:02;5.00;;;3.05;;
25972;SDS011;13765;51.166;4.466;2023-02-28T16:33:33;5.28;;;2.63;;
25972;SDS011;13765;51.166;4.466;2023-02-28T16:35:59;6.95;;;3.33;;
25972;SDS011;13765;51.166;4.466;2023-02-28T16:38:25;8.25;;;3.42;;
25972;SDS011;13765;51.166;4.466;2023-02-28T16:40:59;6.53;;;3.05;;
25972;SDS011;13765;51.166;4.466;2023-02-28T16:43:25;7.07;;;3.55;;
25972;SDS011;13765;51.166;4.466;2023-02-28T16:45:54;6.30;;;3.35;;
25972;SDS011;13765;51.166;4.466;2023-02-28T16:48:22;9.20;;;3.42;;
25972;SDS011;13765;51.166;4.466;2023-02-28T16:50:53;6.15;;;2.97;;
25972;SDS011;13765;51.166;4.466;2023-02-28T16:53:21;9.80;;;2.97;;
25972;SDS011;13765;51.166;4.466;2023-02-28T16:55:49;8.80;;;3.38;;
25972;SDS011;13765;51.166;4.466;2023-02-28T16:58:16;7.30;;;3.70;;
25972;SDS011;13765;51.166;4.466;2023-02-28T17:00:42;6.25;;;3.40;;
25972;SDS011;13765;51.166;4.466;2023-02-28T17:03:29;14.77;;;4.10;;
25972;SDS011;13765;51.166;4.466;2023-02-28T17:05:54;9.02;;;4.00;;
25972;SDS011;13765;51.166;4.466;2023-02-28T17:08:20;8.05;;;3.25;;
25972;SDS011;13765;51.166;4.466;2023-02-28T17:10:48;12.20;;;4.43;;
25972;SDS011;13765;51.166;4.466;2023-02-28T17:13:14;6.53;;;3.60;;
25972;SDS011;13765;51.166;4.466;2023-02-28T17:15:42;6.40;;;3.72;;
25972;SDS011;13765;51.166;4.466;2023-02-28T17:18:13;5.95;;;3.30;;
25972;SDS011;13765;51.166;4.466;2023-02-28T17:20:43;9.00;;;3.93;;
25972;SDS011;13765;51.166;4.466;2023-02-28T17:23:10;9.13;;;3.42;;
25972;SDS011;13765;51.166;4.466;2023-02-28T17:25:38;7.90;;;3.33;;
25972;SDS011;13765;51.166;4.466;2023-02-28T17:28:04;8.52;;;3.42;;
25972;SDS011;13765;51.166;4.466;2023-02-28T17:30:31;7.28;;;3.40;;
25972;SDS011;13765;51.166;4.466;2023-02-28T17:32:58;7.65;;;3.05;;
25972;SDS011;13765;51.166;4.466;2023-02-28T17:35:24;8.98;;;3.88;;
25972;SDS011;13765;51.166;4.466;2023-02-28T17:37:53;7.80;;;3.60;;
25972;SDS011;13765;51.166;4.466;2023-02-28T17:40:19;11.95;;;4.50;;
25972;SDS011;13765;51.166;4.466;2023-02-28T17:42:49;15.23;;;4.68;;
25972;SDS011;13765;51.166;4.466;2023-02-28T17:45:17;9.82;;;3.88;;
25972;SDS011;13765;51.166;4.466;2023-02-28T17:47:43;10.98;;;3.78;;
25972;SDS011;13765;51.166;4.466;2023-02-28T17:50:17;8.38;;;3.70;;
25972;SDS011;13765;51.166;4.466;2023-02-28T17:52:46;8.32;;;4.05;;
25972;SDS011;13765;51.166;4.466;2023-02-28T17:55:15;7.95;;;3.35;;
25972;SDS011;13765;51.166;4.466;2023-02-28T17:57:41;12.18;;;4.65;;
25972;SDS011;13765;51.166;4.466;2023-02-28T18:00:07;6.50;;;3.55;;
25972;SDS011;13765;51.166;4.466;2023-02-28T18:02:37;8.68;;;4.25;;
25972;SDS011;13765;51.166;4.466;2023-02-28T18:05:04;10.75;;;4.80;;
25972;SDS011;13765;51.166;4.466;2023-02-28T18:07:32;10.52;;;4.53;;
25972;SDS011;13765;51.166;4.466;2023-02-28T18:10:01;6.47;;;3.72;;
25972;SDS011;13765;51.166;4.466;2023-02-28T18:12:29;12.00;;;3.58;;